sensor_id;sensor_type;location;lat;lon;timestamp;pressure;altitude;pressure_sealevel;temperature;humidity
47985;BME280;33753;52.912;-7.342;2022-12-29T12:19:08;98503.59;;;8.09;100.00
47985;BME280;33753;52.912;-7.342;2022-12-29T12:21:40;98516.00;;;8.03;100.00
47985;BME280;33753;52.912;-7.342;2022-12-29T12:24:18;98510.34;;;7.91;100.00
47985;BME280;33753;52.912;-7.342;2022-12-29T12:26:55;98516.63;;;8.19;100.00
47985;BME280;33753;52.912;-7.342;2022-12-29T12:29:24;98528.28;;;8.39;100.00
47985;BME280;33753;52.912;-7.342;2022-12-29T12:31:55;98549.00;;;8.32;100.00
47985;BME280;33753;52.912;-7.342;2022-12-29T12:34:27;98527.63;;;8.10;100.00
47985;BME280;33753;52.912;-7.342;2022-12-29T12:39:47;98538.81;;;8.21;100.00
47985;BME280;33753;52.912;-7.342;2022-12-29T12:42:21;98534.69;;;8.38;100.00
47985;BME280;33753;52.912;-7.342;2022-12-29T12:44:57;98537.38;;;8.25;100.00
47985;BME280;33753;52.912;-7.342;2022-12-29T12:47:43;98533.25;;;8.42;100.00
47985;BME280;33753;52.912;-7.342;2022-12-29T12:50:30;98532.88;;;8.45;100.00
47985;BME280;33753;52.912;-7.342;2022-12-29T12:53:03;98529.50;;;8.30;100.00
47985;BME280;33753;52.912;-7.342;2022-12-29T12:55:41;98523.47;;;8.08;100.00
47985;BME280;33753;52.912;-7.342;2022-12-29T12:58:16;98534.84;;;8.10;100.00
47985;BME280;33753;52.912;-7.342;2022-12-29T13:00:48;98549.97;;;8.11;100.00
47985;BME280;33753;52.912;-7.342;2022-12-29T13:03:21;98562.94;;;7.81;100.00
47985;BME280;33753;52.912;-7.342;2022-12-29T13:06:05;98570.72;;;7.62;100.00
47985;BME280;33753;52.912;-7.342;2022-12-29T13:11:25;98609.19;;;6.99;100.00
47985;BME280;33753;52.912;-7.342;2022-12-29T13:16:47;98602.00;;;6.20;100.00
47985;BME280;33753;52.912;-7.342;2022-12-29T13:19:19;98581.66;;;5.96;100.00
47985;BME280;33753;52.912;-7.342;2022-12-29T13:21:57;98579.72;;;5.89;100.00
47985;BME280;33753;52.912;-7.342;2022-12-29T13:24:34;98587.41;;;5.93;100.00
47985;BME280;33753;52.912;-7.342;2022-12-29T13:27:10;98594.34;;;5.87;100.00
47985;BME280;33753;52.912;-7.342;2022-12-29T13:29:42;98601.00;;;5.91;100.00
47985;BME280;33753;52.912;-7.342;2022-12-29T13:32:22;98612.22;;;5.95;100.00
47985;BME280;33753;52.912;-7.342;2022-12-29T13:34:57;98619.69;;;5.84;100.00
47985;BME280;33753;52.912;-7.342;2022-12-29T13:37:33;98615.38;;;5.83;100.00
47985;BME280;33753;52.912;-7.342;2022-12-29T13:40:03;98628.13;;;5.81;100.00
47985;BME280;33753;52.912;-7.342;2022-12-29T13:42:38;98630.28;;;5.86;100.00
47985;BME280;33753;52.912;-7.342;2022-12-29T13:45:09;98635.97;;;5.83;100.00
47985;BME280;33753;52.912;-7.342;2022-12-29T13:47:40;98638.47;;;5.84;100.00
47985;BME280;33753;52.912;-7.342;2022-12-29T13:50:12;98640.72;;;5.81;100.00
47985;BME280;33753;52.912;-7.342;2022-12-29T13:52:44;98637.28;;;5.87;100.00
47985;BME280;33753;52.912;-7.342;2022-12-29T13:55:26;98635.44;;;5.87;100.00
47985;BME280;33753;52.912;-7.342;2022-12-29T13:57:58;98635.25;;;5.89;100.00
47985;BME280;33753;52.912;-7.342;2022-12-29T14:00:31;98636.91;;;5.90;100.00
47985;BME280;33753;52.912;-7.342;2022-12-29T14:03:11;98644.41;;;5.95;100.00
47985;BME280;33753;52.912;-7.342;2022-12-29T14:06:02;98651.44;;;5.96;100.00
47985;BME280;33753;52.912;-7.342;2022-12-29T14:08:33;98648.69;;;6.04;100.00
47985;BME280;33753;52.912;-7.342;2022-12-29T14:11:04;98666.91;;;6.09;100.00
47985;BME280;33753;52.912;-7.342;2022-12-29T14:13:36;98662.44;;;6.16;100.00
47985;BME280;33753;52.912;-7.342;2022-12-29T14:16:05;98659.22;;;6.20;100.00
47985;BME280;33753;52.912;-7.342;2022-12-29T14:18:40;98658.38;;;6.20;100.00
47985;BME280;33753;52.912;-7.342;2022-12-29T14:21:10;98660.81;;;6.15;100.00
47985;BME280;33753;52.912;-7.342;2022-12-29T14:23:47;98656.72;;;6.19;100.00
47985;BME280;33753;52.912;-7.342;2022-12-29T14:26:17;98647.72;;;6.27;100.00
47985;BME280;33753;52.912;-7.342;2022-12-29T14:28:46;98660.31;;;6.26;100.00
47985;BME280;33753;52.912;-7.342;2022-12-29T14:31:33;98660.31;;;6.26;100.00
47985;BME280;33753;52.912;-7.342;2022-12-29T14:36:55;98659.28;;;6.27;100.00
47985;BME280;33753;52.912;-7.342;2022-12-29T14:39:29;98656.31;;;6.37;100.00
47985;BME280;33753;52.912;-7.342;2022-12-29T14:42:02;98654.00;;;6.34;100.00
47985;BME280;33753;52.912;-7.342;2022-12-29T14:44:31;98649.09;;;6.37;100.00
47985;BME280;33753;52.912;-7.342;2022-12-29T14:47:00;98662.38;;;6.46;100.00
47985;BME280;33753;52.912;-7.342;2022-12-29T14:49:30;98664.81;;;6.40;100.00
47985;BME280;33753;52.912;-7.342;2022-12-29T14:52:07;98667.63;;;6.32;100.00
47985;BME280;33753;52.912;-7.342;2022-12-29T14:57:29;98668.13;;;6.43;100.00
47985;BME280;33753;52.912;-7.342;2022-12-29T15:00:00;98682.06;;;6.31;100.00
47985;BME280;33753;52.912;-7.342;2022-12-29T15:02:32;98689.09;;;6.32;100.00
47985;BME280;33753;52.912;-7.342;2022-12-29T15:05:02;98691.69;;;6.26;100.00
47985;BME280;33753;52.912;-7.342;2022-12-29T15:07:31;98682.66;;;6.12;100.00
47985;BME280;33753;52.912;-7.342;2022-12-29T15:10:03;98670.72;;;5.99;100.00
47985;BME280;33753;52.912;-7.342;2022-12-29T15:12:35;98678.81;;;5.91;100.00
47985;BME280;33753;52.912;-7.342;2022-12-29T15:15:19;98681.41;;;5.84;100.00
47985;BME280;33753;52.912;-7.342;2022-12-29T15:17:48;98672.00;;;5.74;100.00
47985;BME280;33753;52.912;-7.342;2022-12-29T15:20:25;98680.41;;;5.70;100.00
47985;BME280;33753;52.912;-7.342;2022-12-29T15:22:55;98687.91;;;5.60;100.00
47985;BME280;33753;52.912;-7.342;2022-12-29T15:25:24;98686.97;;;5.53;100.00
47985;BME280;33753;52.912;-7.342;2022-12-29T15:27:55;98686.75;;;5.40;100.00
47985;BME280;33753;52.912;-7.342;2022-12-29T15:30:25;98676.44;;;5.28;100.00
47985;BME280;33753;52.912;-7.342;2022-12-29T15:32:53;98676.69;;;5.18;100.00
47985;BME280;33753;52.912;-7.342;2022-12-29T15:35:26;98671.88;;;5.14;100.00
47985;BME280;33753;52.912;-7.342;2022-12-29T15:37:56;98669.94;;;5.08;100.00
47985;BME280;33753;52.912;-7.342;2022-12-29T15:40:26;98680.66;;;5.08;100.00
47985;BME280;33753;52.912;-7.342;2022-12-29T15:43:03;98667.88;;;4.95;100.00
47985;BME280;33753;52.912;-7.342;2022-12-29T15:45:36;98675.97;;;4.87;100.00
47985;BME280;33753;52.912;-7.342;2022-12-29T15:48:07;98668.66;;;4.80;100.00
47985;BME280;33753;52.912;-7.342;2022-12-29T15:50:42;98678.22;;;4.75;100.00
47985;BME280;33753;52.912;-7.342;2022-12-29T15:53:12;98675.25;;;4.70;100.00
47985;BME280;33753;52.912;-7.342;2022-12-29T15:55:46;98687.22;;;4.59;100.00
47985;BME280;33753;52.912;-7.342;2022-12-29T15:58:20;98687.06;;;4.52;100.00
47985;BME280;33753;52.912;-7.342;2022-12-29T16:00:51;98699.97;;;4.48;100.00
47985;BME280;33753;52.912;-7.342;2022-12-29T16:03:20;98702.53;;;4.42;100.00
47985;BME280;33753;52.912;-7.342;2022-12-29T16:05:51;98708.25;;;4.39;100.00
47985;BME280;33753;52.912;-7.342;2022-12-29T16:08:22;98709.59;;;4.35;100.00
47985;BME280;33753;52.912;-7.342;2022-12-29T16:10:53;98717.94;;;4.31;100.00
47985;BME280;33753;52.912;-7.342;2022-12-29T16:13:25;98726.03;;;4.23;100.00
47985;BME280;33753;52.912;-7.342;2022-12-29T16:15:56;98733.38;;;4.21;100.00
47985;BME280;33753;52.912;-7.342;2022-12-29T16:18:28;98728.03;;;4.21;100.00
47985;BME280;33753;52.912;-7.342;2022-12-29T16:20:57;98727.41;;;4.11;100.00
47985;BME280;33753;52.912;-7.342;2022-12-29T16:23:26;98732.28;;;4.07;100.00
47985;BME280;33753;52.912;-7.342;2022-12-29T16:25:55;98727.41;;;4.11;100.00
47985;BME280;33753;52.912;-7.342;2022-12-29T16:28:27;98728.41;;;4.10;100.00
47985;BME280;33753;52.912;-7.342;2022-12-29T16:30:59;98718.22;;;4.05;100.00
47985;BME280;33753;52.912;-7.342;2022-12-29T16:33:37;98713.59;;;3.99;100.00
47985;BME280;33753;52.912;-7.342;2022-12-29T16:36:26;98716.09;;;3.92;100.00
47985;BME280;33753;52.912;-7.342;2022-12-29T16:41:49;98724.81;;;3.86;100.00
47985;BME280;33753;52.912;-7.342;2022-12-29T16:44:20;98733.19;;;3.83;100.00
47985;BME280;33753;52.912;-7.342;2022-12-29T16:47:05;98736.19;;;3.80;100.00
47985;BME280;33753;52.912;-7.342;2022-12-29T16:49:46;98755.59;;;3.82;100.00
47985;BME280;33753;52.912;-7.342;2022-12-29T16:52:18;98753.91;;;3.81;100.00
47985;BME280;33753;52.912;-7.342;2022-12-29T16:54:48;98754.09;;;3.79;100.00
47985;BME280;33753;52.912;-7.342;2022-12-29T16:57:21;98753.09;;;3.80;100.00
47985;BME280;33753;52.912;-7.342;2022-12-29T16:59:51;98756.41;;;3.74;100.00
47985;BME280;33753;52.912;-7.342;2022-12-29T17:02:20;98771.63;;;3.66;100.00
47985;BME280;33753;52.912;-7.342;2022-12-29T17:04:51;98771.16;;;3.70;100.00
47985;BME280;33753;52.912;-7.342;2022-12-29T17:07:20;98763.97;;;3.71;100.00
47985;BME280;33753;52.912;-7.342;2022-12-29T17:09:48;98756.94;;;3.78;100.00
47985;BME280;33753;52.912;-7.342;2022-12-29T17:12:21;98766.28;;;3.82;100.00
47985;BME280;33753;52.912;-7.342;2022-12-29T17:14:54;98765.94;;;3.85;100.00
47985;BME280;33753;52.912;-7.342;2022-12-29T17:17:26;98764.59;;;3.81;100.00
47985;BME280;33753;52.912;-7.342;2022-12-29T17:20:00;98766.28;;;3.82;100.00
47985;BME280;33753;52.912;-7.342;2022-12-29T17:22:29;98763.91;;;3.87;100.00
47985;BME280;33753;52.912;-7.342;2022-12-29T17:24:58;98768.28;;;3.88;100.00
47985;BME280;33753;52.912;-7.342;2022-12-29T17:27:29;98758.25;;;3.90;100.00
47985;BME280;33753;52.912;-7.342;2022-12-29T17:30:01;98746.88;;;3.88;100.00
47985;BME280;33753;52.912;-7.342;2022-12-29T17:32:30;98744.19;;;3.88;100.00
47985;BME280;33753;52.912;-7.342;2022-12-29T17:34:59;98737.50;;;3.84;100.00
47985;BME280;33753;52.912;-7.342;2022-12-29T17:37:28;98735.88;;;3.83;100.00
47985;BME280;33753;52.912;-7.342;2022-12-29T17:39:57;98729.50;;;3.84;100.00
47985;BME280;33753;52.912;-7.342;2022-12-29T17:42:26;98718.63;;;3.86;100.00
47985;BME280;33753;52.912;-7.342;2022-12-29T17:44:54;98716.97;;;3.85;100.00
47985;BME280;33753;52.912;-7.342;2022-12-29T17:47:23;98715.47;;;3.90;100.00
47985;BME280;33753;52.912;-7.342;2022-12-29T17:49:51;98725.81;;;3.93;100.00
47985;BME280;33753;52.912;-7.342;2022-12-29T17:52:20;98731.47;;;3.98;100.00
47985;BME280;33753;52.912;-7.342;2022-12-29T17:54:49;98733.81;;;4.02;100.00
47985;BME280;33753;52.912;-7.342;2022-12-29T17:57:19;98723.59;;;4.05;100.00
47985;BME280;33753;52.912;-7.342;2022-12-29T17:59:47;98711.34;;;4.11;100.00
47985;BME280;33753;52.912;-7.342;2022-12-29T18:02:32;98716.72;;;4.11;100.00
47985;BME280;33753;52.912;-7.342;2022-12-29T18:05:01;98716.34;;;4.14;100.00
47985;BME280;33753;52.912;-7.342;2022-12-29T18:07:29;98713.69;;;4.14;100.00
47985;BME280;33753;52.912;-7.342;2022-12-29T18:10:02;98710.84;;;4.15;100.00
47985;BME280;33753;52.912;-7.342;2022-12-29T18:12:32;98701.16;;;4.14;100.00
47985;BME280;33753;52.912;-7.342;2022-12-29T18:15:09;98697.28;;;4.17;100.00
47985;BME280;33753;52.912;-7.342;2022-12-29T18:17:45;98690.28;;;4.16;100.00
47985;BME280;33753;52.912;-7.342;2022-12-29T18:20:13;98684.75;;;4.18;100.00
47985;BME280;33753;52.912;-7.342;2022-12-29T18:22:42;98683.91;;;4.17;100.00
47985;BME280;33753;52.912;-7.342;2022-12-29T18:25:17;98667.19;;;4.15;100.00
47985;BME280;33753;52.912;-7.342;2022-12-29T18:27:48;98666.19;;;4.16;100.00
47985;BME280;33753;52.912;-7.342;2022-12-29T18:30:16;98662.19;;;4.12;100.00
47985;BME280;33753;52.912;-7.342;2022-12-29T18:32:46;98657.66;;;4.12;100.00
47985;BME280;33753;52.912;-7.342;2022-12-29T18:35:16;98648.66;;;4.13;100.00
47985;BME280;33753;52.912;-7.342;2022-12-29T18:37:45;98640.97;;;4.10;100.00
47985;BME280;33753;52.912;-7.342;2022-12-29T18:40:13;98635.63;;;4.10;100.00
47985;BME280;33753;52.912;-7.342;2022-12-29T18:42:41;98627.41;;;4.12;100.00
47985;BME280;33753;52.912;-7.342;2022-12-29T18:45:14;98624.91;;;4.10;100.00
47985;BME280;33753;52.912;-7.342;2022-12-29T18:47:43;98620.88;;;4.14;100.00
47985;BME280;33753;52.912;-7.342;2022-12-29T18:50:13;98604.47;;;4.18;100.00
47985;BME280;33753;52.912;-7.342;2022-12-29T18:52:41;98590.31;;;4.09;100.00
47985;BME280;33753;52.912;-7.342;2022-12-29T18:55:11;98584.97;;;4.09;100.00
47985;BME280;33753;52.912;-7.342;2022-12-29T18:57:39;98578.91;;;4.15;100.00
47985;BME280;33753;52.912;-7.342;2022-12-29T19:00:08;98568.56;;;4.12;100.00
47985;BME280;33753;52.912;-7.342;2022-12-29T19:02:37;98569.88;;;4.16;100.00
47985;BME280;33753;52.912;-7.342;2022-12-29T19:05:09;98559.97;;;4.17;100.00
47985;BME280;33753;52.912;-7.342;2022-12-29T19:07:42;98551.13;;;4.16;100.00
47985;BME280;33753;52.912;-7.342;2022-12-29T19:10:10;98546.44;;;4.18;100.00
47985;BME280;33753;52.912;-7.342;2022-12-29T19:12:38;98536.72;;;4.17;100.00
47985;BME280;33753;52.912;-7.342;2022-12-29T19:15:09;98531.91;;;4.12;100.00
47985;BME280;33753;52.912;-7.342;2022-12-29T19:17:40;98526.19;;;4.15;100.00
47985;BME280;33753;52.912;-7.342;2022-12-29T19:20:10;98519.31;;;4.21;100.00
47985;BME280;33753;52.912;-7.342;2022-12-29T19:22:49;98513.13;;;4.21;100.00
47985;BME280;33753;52.912;-7.342;2022-12-29T19:25:17;98507.97;;;4.19;100.00
47985;BME280;33753;52.912;-7.342;2022-12-29T19:27:46;98501.59;;;4.20;100.00
47985;BME280;33753;52.912;-7.342;2022-12-29T19:30:14;98495.91;;;4.23;100.00
47985;BME280;33753;52.912;-7.342;2022-12-29T19:32:43;98505.88;;;4.29;100.00
47985;BME280;33753;52.912;-7.342;2022-12-29T19:35:11;98497.19;;;4.27;100.00
47985;BME280;33753;52.912;-7.342;2022-12-29T19:37:39;98486.78;;;4.32;100.00
47985;BME280;33753;52.912;-7.342;2022-12-29T19:40:11;98485.75;;;4.33;100.00
47985;BME280;33753;52.912;-7.342;2022-12-29T19:42:39;98480.03;;;4.37;100.00
47985;BME280;33753;52.912;-7.342;2022-12-29T19:45:08;98474.31;;;4.40;100.00
47985;BME280;33753;52.912;-7.342;2022-12-29T19:47:36;98460.56;;;4.43;100.00
47985;BME280;33753;52.912;-7.342;2022-12-29T19:50:05;98447.69;;;4.46;100.00
47985;BME280;33753;52.912;-7.342;2022-12-29T19:52:34;98444.81;;;4.48;100.00
47985;BME280;33753;52.912;-7.342;2022-12-29T19:55:03;98445.19;;;4.45;100.00
47985;BME280;33753;52.912;-7.342;2022-12-29T19:57:34;98432.06;;;4.50;100.00
47985;BME280;33753;52.912;-7.342;2022-12-29T20:00:02;98421.00;;;4.53;100.00
47985;BME280;33753;52.912;-7.342;2022-12-29T20:02:37;98414.00;;;4.52;100.00
47985;BME280;33753;52.912;-7.342;2022-12-29T20:05:06;98407.25;;;4.56;100.00
47985;BME280;33753;52.912;-7.342;2022-12-29T20:07:35;98403.38;;;4.59;100.00
47985;BME280;33753;52.912;-7.342;2022-12-29T20:10:04;98405.88;;;4.60;100.00
47985;BME280;33753;52.912;-7.342;2022-12-29T20:12:34;98397.56;;;4.55;100.00
47985;BME280;33753;52.912;-7.342;2022-12-29T20:15:04;98391.44;;;4.61;100.00
47985;BME280;33753;52.912;-7.342;2022-12-29T20:17:33;98393.88;;;4.56;100.00
47985;BME280;33753;52.912;-7.342;2022-12-29T20:20:22;98378.53;;;4.50;100.00
47985;BME280;33753;52.912;-7.342;2022-12-29T20:22:51;98368.19;;;4.47;100.00
47985;BME280;33753;52.912;-7.342;2022-12-29T20:25:19;98351.13;;;4.48;100.00
47985;BME280;33753;52.912;-7.342;2022-12-29T20:28:09;98347.63;;;4.47;100.00
47985;BME280;33753;52.912;-7.342;2022-12-29T20:30:37;98337.72;;;4.48;100.00
47985;BME280;33753;52.912;-7.342;2022-12-29T20:33:05;98324.97;;;4.50;100.00
47985;BME280;33753;52.912;-7.342;2022-12-29T20:35:45;98310.22;;;4.54;100.00
47985;BME280;33753;52.912;-7.342;2022-12-29T20:38:20;98304.47;;;4.57;100.00
47985;BME280;33753;52.912;-7.342;2022-12-29T20:40:48;98292.75;;;4.58;100.00
47985;BME280;33753;52.912;-7.342;2022-12-29T20:43:18;98289.34;;;4.64;100.00
47985;BME280;33753;52.912;-7.342;2022-12-29T20:45:47;98286.50;;;4.66;100.00
47985;BME280;33753;52.912;-7.342;2022-12-29T20:48:15;98272.91;;;4.67;100.00
47985;BME280;33753;52.912;-7.342;2022-12-29T20:50:43;98272.16;;;4.74;100.00
47985;BME280;33753;52.912;-7.342;2022-12-29T20:53:12;98258.56;;;4.75;100.00
47985;BME280;33753;52.912;-7.342;2022-12-29T20:55:40;98248.75;;;4.82;100.00
47985;BME280;33753;52.912;-7.342;2022-12-29T20:58:08;98241.81;;;4.88;100.00
47985;BME280;33753;52.912;-7.342;2022-12-29T21:00:51;98226.94;;;4.85;100.00
47985;BME280;33753;52.912;-7.342;2022-12-29T21:03:19;98216.50;;;4.91;100.00
47985;BME280;33753;52.912;-7.342;2022-12-29T21:05:48;98210.84;;;5.00;100.00
47985;BME280;33753;52.912;-7.342;2022-12-29T21:08:16;98211.47;;;5.02;100.00
47985;BME280;33753;52.912;-7.342;2022-12-29T21:10:44;98198.13;;;5.09;100.00
47985;BME280;33753;52.912;-7.342;2022-12-29T21:13:14;98188.88;;;5.12;100.00
47985;BME280;33753;52.912;-7.342;2022-12-29T21:15:43;98178.41;;;5.17;100.00
47985;BME280;33753;52.912;-7.342;2022-12-29T21:18:13;98167.53;;;5.25;100.00
47985;BME280;33753;52.912;-7.342;2022-12-29T21:20:42;98130.09;;;5.32;100.00
47985;BME280;33753;52.912;-7.342;2022-12-29T21:23:10;98137.78;;;5.42;100.00
47985;BME280;33753;52.912;-7.342;2022-12-29T21:25:41;98141.34;;;5.49;100.00
47985;BME280;33753;52.912;-7.342;2022-12-29T21:28:10;98123.44;;;5.56;100.00
47985;BME280;33753;52.912;-7.342;2022-12-29T21:30:39;98112.94;;;5.61;100.00
47985;BME280;33753;52.912;-7.342;2022-12-29T21:33:08;98091.94;;;5.71;100.00
47985;BME280;33753;52.912;-7.342;2022-12-29T21:35:38;98070.50;;;5.78;100.00
47985;BME280;33753;52.912;-7.342;2022-12-29T21:38:06;98082.09;;;5.85;100.00
47985;BME280;33753;52.912;-7.342;2022-12-29T21:40:35;98072.66;;;5.96;100.00
47985;BME280;33753;52.912;-7.342;2022-12-29T21:43:04;98066.50;;;6.02;100.00
47985;BME280;33753;52.912;-7.342;2022-12-29T21:45:32;98062.41;;;6.07;100.00
47985;BME280;33753;52.912;-7.342;2022-12-29T21:48:00;98066.16;;;6.19;100.00
47985;BME280;33753;52.912;-7.342;2022-12-29T21:50:48;98033.94;;;6.26;100.00
47985;BME280;33753;52.912;-7.342;2022-12-29T21:53:36;98047.81;;;6.36;100.00
47985;BME280;33753;52.912;-7.342;2022-12-29T21:56:05;98039.75;;;6.43;100.00
47985;BME280;33753;52.912;-7.342;2022-12-29T21:58:34;98022.00;;;6.48;100.00
47985;BME280;33753;52.912;-7.342;2022-12-29T22:01:20;98021.19;;;6.54;100.00
47985;BME280;33753;52.912;-7.342;2022-12-29T22:04:06;98006.28;;;6.58;100.00
47985;BME280;33753;52.912;-7.342;2022-12-29T22:06:53;98006.31;;;6.65;100.00
47985;BME280;33753;52.912;-7.342;2022-12-29T22:09:39;97989.34;;;6.71;100.00
47985;BME280;33753;52.912;-7.342;2022-12-29T22:12:25;97981.09;;;6.80;100.00
47985;BME280;33753;52.912;-7.342;2022-12-29T22:15:10;97984.41;;;6.82;100.00
47985;BME280;33753;52.912;-7.342;2022-12-29T22:17:39;97959.16;;;6.89;100.00
47985;BME280;33753;52.912;-7.342;2022-12-29T22:20:14;97969.91;;;6.96;100.00
47985;BME280;33753;52.912;-7.342;2022-12-29T22:22:44;97953.34;;;6.99;100.00
47985;BME280;33753;52.912;-7.342;2022-12-29T22:25:12;97940.72;;;7.06;100.00
47985;BME280;33753;52.912;-7.342;2022-12-29T22:27:41;97945.06;;;7.07;100.00
47985;BME280;33753;52.912;-7.342;2022-12-29T22:30:09;97939.88;;;7.13;100.00
47985;BME280;33753;52.912;-7.342;2022-12-29T22:32:38;97931.81;;;7.13;100.00
47985;BME280;33753;52.912;-7.342;2022-12-29T22:35:07;97938.41;;;7.17;100.00
47985;BME280;33753;52.912;-7.342;2022-12-29T22:37:36;97928.28;;;7.19;100.00
47985;BME280;33753;52.912;-7.342;2022-12-29T22:40:08;97923.50;;;7.21;100.00
47985;BME280;33753;52.912;-7.342;2022-12-29T22:42:36;97919.38;;;7.25;100.00
47985;BME280;33753;52.912;-7.342;2022-12-29T22:45:06;97915.66;;;7.26;100.00
47985;BME280;33753;52.912;-7.342;2022-12-29T22:47:34;97927.59;;;7.30;100.00
47985;BME280;33753;52.912;-7.342;2022-12-29T22:50:03;97912.53;;;7.29;100.00
47985;BME280;33753;52.912;-7.342;2022-12-29T22:52:31;97909.41;;;7.32;100.00
47985;BME280;33753;52.912;-7.342;2022-12-29T22:54:59;97906.28;;;7.35;100.00
47985;BME280;33753;52.912;-7.342;2022-12-29T22:57:34;97910.63;;;7.36;100.00
47985;BME280;33753;52.912;-7.342;2022-12-29T23:00:03;97912.28;;;7.37;100.00
47985;BME280;33753;52.912;-7.342;2022-12-29T23:02:32;97895.09;;;7.38;100.00
47985;BME280;33753;52.912;-7.342;2022-12-29T23:05:01;97897.19;;;7.36;100.00
47985;BME280;33753;52.912;-7.342;2022-12-29T23:07:31;97889.72;;;7.38;100.00
47985;BME280;33753;52.912;-7.342;2022-12-29T23:09:59;97887.03;;;7.38;100.00
47985;BME280;33753;52.912;-7.342;2022-12-29T23:12:28;97891.59;;;7.38;100.00
47985;BME280;33753;52.912;-7.342;2022-12-29T23:14:58;97893.63;;;7.42;100.00
47985;BME280;33753;52.912;-7.342;2022-12-29T23:17:26;97886.59;;;7.41;100.00
47985;BME280;33753;52.912;-7.342;2022-12-29T23:19:54;97880.81;;;7.44;100.00
47985;BME280;33753;52.912;-7.342;2022-12-29T23:22:23;97875.44;;;7.44;100.00
47985;BME280;33753;52.912;-7.342;2022-12-29T23:24:51;97874.38;;;7.46;100.00
47985;BME280;33753;52.912;-7.342;2022-12-29T23:27:19;97876.25;;;7.45;100.00
47985;BME280;33753;52.912;-7.342;2022-12-29T23:29:48;97866.94;;;7.48;100.00
47985;BME280;33753;52.912;-7.342;2022-12-29T23:32:17;97863.16;;;7.49;100.00
47985;BME280;33753;52.912;-7.342;2022-12-29T23:34:45;97863.38;;;7.54;100.00
47985;BME280;33753;52.912;-7.342;2022-12-29T23:37:14;97855.88;;;7.56;100.00
47985;BME280;33753;52.912;-7.342;2022-12-29T23:39:42;97845.31;;;7.61;100.00
47985;BME280;33753;52.912;-7.342;2022-12-29T23:42:10;97826.03;;;7.64;100.00
47985;BME280;33753;52.912;-7.342;2022-12-29T23:44:39;97824.78;;;7.67;100.00
47985;BME280;33753;52.912;-7.342;2022-12-29T23:47:07;97835.09;;;7.70;100.00
47985;BME280;33753;52.912;-7.342;2022-12-29T23:49:37;97820.63;;;7.71;100.00
47985;BME280;33753;52.912;-7.342;2022-12-29T23:52:05;97804.03;;;7.74;100.00
47985;BME280;33753;52.912;-7.342;2022-12-29T23:54:33;97801.13;;;7.75;100.00
47985;BME280;33753;52.912;-7.342;2022-12-29T23:57:02;97785.16;;;7.81;100.00
47985;BME280;33753;52.912;-7.342;2022-12-29T23:59:30;97793.81;;;7.83;100.00
